Blue Galaxy — SWDA — position and weather

sailwx.info

Track history (hours):
 
Tides and Currents Weather Stations Pressure Air Temp Water Temp Dewpoint Dewpoint Depression Visibility Wind Speed Wind Dir Waves Ship Positions

Blue Galaxy

Last reported at 2017-Sep-23 19:31 UTC. Time now 2017-Sep-24 01:39 UTC.
Position N 37°35' E 023°43'.

Length 192 m; draft 6.7 m.

Type: Passenger vessel. MMSI: 239672000.

Date/timePositionNaut miles runAvg speedWind from/ knotsBaromVisibWave heightAir tempDewpointWater temp
2017-Sep-23 19:31N 37°35' E 023°43'1 0.0
2017-Sep-21 19:59N 37°35' E 023°43'1019.9
2017-Sep-21 19:31N 37°44' E 023°39'1019.1
2017-Sep-21 19:01N 37°54' E 023°37'3 6.8
2017-Sep-21 18:30N 37°57' E 023°38'0 0.0
2017-Sep-21 17:59N 37°57' E 023°38'0 0.0
2017-Sep-21 17:29N 37°57' E 023°38'0 0.0
2017-Sep-21 16:59N 37°57' E 023°38'0 0.0
2017-Sep-21 16:29N 37°57' E 023°38'0 0.0
2017-Sep-21 15:59N 37°57' E 023°38'0 0.0
2017-Sep-21 15:29N 37°57' E 023°38'0 0.0
2017-Sep-21 14:59N 37°57' E 023°38'0 0.0
2017-Sep-21 14:29N 37°57' E 023°38'0 0.0
2017-Sep-21 13:59N 37°57' E 023°38'0 0.0
2017-Sep-21 13:29N 37°57' E 023°38'0 0.0
2017-Sep-21 12:59N 37°57' E 023°38'0 0.0
2017-Sep-21 12:29N 37°57' E 023°38'0 0.0
2017-Sep-21 11:59N 37°57' E 023°38'0 0.0
2017-Sep-21 11:29N 37°57' E 023°38'0 0.0
2017-Sep-21 10:59N 37°57' E 023°38'0 0.0
2017-Sep-21 10:29N 37°57' E 023°38'0 0.0
2017-Sep-21 09:59N 37°57' E 023°38'0 0.0
2017-Sep-21 09:29N 37°57' E 023°38'0 0.0
2017-Sep-21 08:59N 37°57' E 023°38'0 0.0
2017-Sep-21 08:26N 37°57' E 023°38'0 0.0
2017-Sep-21 07:59N 37°57' E 023°38'0 0.0
2017-Sep-21 07:29N 37°57' E 023°38'0 0.0
2017-Sep-21 06:59N 37°57' E 023°38'0 0.0
2017-Sep-21 06:29N 37°57' E 023°38'0 0.0
2017-Sep-21 05:59N 37°57' E 023°38'0 0.0
2017-Sep-21 05:29N 37°57' E 023°38'0 0.0
2017-Sep-21 04:59N 37°57' E 023°38'0 0.0
2017-Sep-21 04:29N 37°57' E 023°38'0 0.0
2017-Sep-21 03:59N 37°57' E 023°38'0 0.0
2017-Sep-21 03:29N 37°57' E 023°38'0 0.0
2017-Sep-21 03:01N 37°57' E 023°38'1 2.9
2017-Sep-21 02:31N 37°56' E 023°37'918.5
2017-Sep-21 02:01N 37°48' E 023°42'918.9
2017-Sep-21 01:31N 37°40' E 023°48'12719.0
2017-Sep-20 18:50N 35°34' E 024°13'2 0.1
2017-Sep-20 02:06N 35°32' E 024°13'220.0
2017-Sep-20 02:00N 35°34' E 024°13'1020.0
2017-Sep-20 01:29N 35°44' E 024°11'1020.1
2017-Sep-20 01:00N 35°54' E 024°08'1020.2
2017-Sep-20 00:30N 36°03' E 024°03'918.5
2017-Sep-20 00:00N 36°12' E 024°01'1018.9
2017-Sep-19 23:30N 36°22' E 024°03'1419.6
2017-Sep-19 22:48N 36°35' E 023°59'619.4
2017-Sep-19 22:30N 36°40' E 023°57'1019.1
2017-Sep-19 22:00N 36°50' E 023°56'918.9
2017-Sep-19 21:30N 36°59' E 023°53'918.8
2017-Sep-19 21:00N 37°08' E 023°51'918.9
2017-Sep-19 20:30N 37°18' E 023°48'1019.1
2017-Sep-19 20:00N 37°27' E 023°46'1019.4
2017-Sep-19 19:30N 37°36' E 023°42'1019.5
2017-Sep-19 19:00N 37°46' E 023°39'918.6
2017-Sep-19 18:30N 37°55' E 023°37'2 4.8
2017-Sep-19 18:00N 37°57' E 023°38'0 0.0
2017-Sep-19 17:30N 37°57' E 023°38'0 0.0
2017-Sep-19 16:58N 37°57' E 023°38'0 0.0
2017-Sep-19 16:28N 37°57' E 023°38'0 0.0
2017-Sep-19 15:58N 37°57' E 023°38'0 0.0
2017-Sep-19 15:28N 37°57' E 023°38'0 0.0
2017-Sep-19 14:58N 37°57' E 023°38'0 0.0
2017-Sep-19 14:28N 37°57' E 023°38'0 0.0
2017-Sep-19 13:58N 37°57' E 023°38'0 0.0
2017-Sep-19 13:28N 37°57' E 023°38'0 0.0
2017-Sep-19 12:58N 37°57' E 023°38'0 0.0
2017-Sep-19 12:28N 37°57' E 023°38'0 0.0
2017-Sep-19 11:58N 37°57' E 023°38'0 0.0
2017-Sep-19 11:28N 37°57' E 023°38'0 0.0
2017-Sep-19 10:58N 37°57' E 023°38'0 0.0
2017-Sep-19 10:28N 37°57' E 023°38'0 0.0
2017-Sep-19 09:58N 37°57' E 023°38'0 0.0
2017-Sep-19 09:28N 37°57' E 023°38'0 0.0
2017-Sep-19 08:58N 37°57' E 023°38'0 0.0
2017-Sep-19 08:28N 37°57' E 023°38'0 0.0
2017-Sep-19 07:58N 37°57' E 023°38'0 0.0
2017-Sep-19 07:22N 37°57' E 023°38'0 0.0
2017-Sep-19 06:58N 37°57' E 023°38'0 0.0
2017-Sep-19 06:28N 37°57' E 023°38'0 0.0
2017-Sep-19 05:58N 37°57' E 023°38'0 0.0
2017-Sep-19 05:28N 37°57' E 023°38'0 0.0
2017-Sep-19 04:58N 37°57' E 023°38'0 0.0
2017-Sep-19 04:28N 37°57' E 023°38'0 0.0
2017-Sep-19 03:58N 37°57' E 023°38'0 0.0
2017-Sep-19 03:28N 37°57' E 023°38'0 0.0
2017-Sep-19 02:58N 37°57' E 023°38'0 0.9
2017-Sep-19 02:30N 37°56' E 023°38'714.9
2017-Sep-19 02:00N 37°49' E 023°41'1019.2
2017-Sep-19 01:30N 37°41' E 023°46'1019.3
2017-Sep-19 01:00N 37°31' E 023°49'1019.4
2017-Sep-19 00:30N 37°22' E 023°53'1019.7
2017-Sep-19 00:00N 37°12' E 023°55'1019.9
2017-Sep-18 23:30N 37°03' E 023°58'1019.9
2017-Sep-18 23:00N 36°53' E 024°00'1019.9
2017-Sep-18 22:30N 36°43' E 024°02'1520.1
2017-Sep-18 21:47N 36°29' E 024°05'519.7
2017-Sep-18 21:30N 36°23' E 024°06'4919.0
2017-Sep-18 18:56N 35°35' E 024°14'5 0.3
2017-Sep-18 02:01N 35°30' E 024°12'019.9
2017-Sep-18 02:00N 35°30' E 024°12'918.8
2017-Sep-18 01:30N 35°39' E 024°15'1519.8
2017-Sep-18 00:45N 35°53' E 024°11'520.4
2017-Sep-18 00:29N 35°58' E 024°09'8219.6
2017-Sep-17 20:18N 37°19' E 023°49'619.7
2017-Sep-17 20:00N 37°24' E 023°47'1019.6
2017-Sep-17 19:30N 37°34' E 023°44'1019.5
2017-Sep-17 19:00N 37°43' E 023°40'918.7
2017-Sep-17 18:30N 37°52' E 023°37'5 9.3
2017-Sep-17 18:00N 37°57' E 023°38'0 0.0
2017-Sep-17 17:31N 37°57' E 023°38'0 0.0
2017-Sep-17 17:00N 37°57' E 023°38'0 0.0
2017-Sep-17 16:30N 37°57' E 023°38'0 0.0
2017-Sep-17 16:00N 37°57' E 023°38'0 0.0
2017-Sep-17 15:30N 37°57' E 023°38'0 0.0
2017-Sep-17 15:00N 37°57' E 023°38'0 0.0
2017-Sep-17 14:30N 37°57' E 023°38'0 0.0
2017-Sep-17 14:00N 37°57' E 023°38'0 0.0
2017-Sep-17 13:30N 37°57' E 023°38'0 0.0
2017-Sep-17 13:00N 37°57' E 023°38'0 0.0
2017-Sep-17 12:30N 37°57' E 023°38'0 0.0
2017-Sep-17 12:00N 37°57' E 023°38'0 0.0
2017-Sep-17 11:30N 37°57' E 023°38'0 0.0
2017-Sep-17 11:00N 37°57' E 023°38'0 0.0
2017-Sep-17 10:30N 37°57' E 023°38'0 0.0
2017-Sep-17 10:00N 37°57' E 023°38'0 0.0
2017-Sep-17 09:30N 37°57' E 023°38'0 0.0
2017-Sep-17 09:00N 37°57' E 023°38'0 0.0
2017-Sep-17 08:30N 37°57' E 023°38'0 0.0
2017-Sep-17 08:00N 37°57' E 023°38'0 0.0
2017-Sep-17 07:30N 37°57' E 023°38'0 0.0
2017-Sep-17 07:00N 37°57' E 023°38'0 0.0
2017-Sep-17 06:30N 37°57' E 023°38'0 0.0
2017-Sep-17 05:58N 37°57' E 023°38'0 0.0
2017-Sep-17 05:28N 37°57' E 023°38'0 0.0
2017-Sep-17 04:58N 37°57' E 023°38'0 0.0
2017-Sep-17 04:28N 37°57' E 023°38'0 0.0
2017-Sep-17 03:58N 37°57' E 023°38'0 0.0
2017-Sep-17 03:28N 37°57' E 023°38'0 0.0
2017-Sep-17 02:58N 37°57' E 023°38'0 0.0
2017-Sep-17 02:30N 37°57' E 023°38'4 7.5
2017-Sep-17 02:00N 37°53' E 023°38'1019.7
2017-Sep-17 01:30N 37°44' E 023°43'1019.6
2017-Sep-17 01:00N 37°35' E 023°47'1020.0
2017-Sep-17 00:30N 37°25' E 023°49'1020.0
2017-Sep-17 00:00N 37°16' E 023°54'1020.3
2017-Sep-16 23:30N 37°06' E 023°59'1619.7
2017-Sep-16 22:41N 36°52' E 024°07'519.7
2017-Sep-16 22:25N 36°47' E 024°05'1620.1
2017-Sep-16 21:39N 36°31' E 024°03'320.1
2017-Sep-16 21:30N 36°29' E 024°03'1019.8
2017-Sep-16 20:59N 36°18' E 024°03'14 0.7
2017-Sep-16 00:51N 36°04' E 024°06'720.0
2017-Sep-16 00:30N 36°11' E 024°05'3819.5
2017-Sep-15 22:33N 36°48' E 023°57'119.8
2017-Sep-15 22:30N 36°49' E 023°56'1019.6
2017-Sep-15 22:00N 36°59' E 023°53'1019.3
2017-Sep-15 21:30N 37°08' E 023°51'1019.0
2017-Sep-15 21:00N 37°17' E 023°49'1019.1
2017-Sep-15 20:30N 37°27' E 023°46'1019.4
2017-Sep-15 20:00N 37°36' E 023°43'1019.2
2017-Sep-15 19:30N 37°45' E 023°39'918.6
2017-Sep-15 19:00N 37°54' E 023°37'3 5.7
2017-Sep-15 18:30N 37°57' E 023°38'0 0.0
2017-Sep-15 18:00N 37°57' E 023°38'0 0.0
2017-Sep-15 17:31N 37°57' E 023°38'0 0.0
2017-Sep-15 16:59N 37°57' E 023°38'0 0.0
2017-Sep-15 16:26N 37°57' E 023°38'0 0.0
2017-Sep-15 15:59N 37°57' E 023°38'0 0.0
2017-Sep-15 15:29N 37°57' E 023°38'0 0.0
2017-Sep-15 14:59N 37°57' E 023°38'0 0.0
2017-Sep-15 14:29N 37°57' E 023°38'0 0.0
2017-Sep-15 14:00N 37°57' E 023°38'0 0.0
2017-Sep-15 13:25N 37°57' E 023°38'0 0.0
2017-Sep-15 12:58N 37°57' E 023°38'0 0.0
2017-Sep-15 12:28N 37°57' E 023°38'0 0.0
2017-Sep-15 11:58N 37°57' E 023°38'0 0.0
2017-Sep-15 11:28N 37°57' E 023°38'0 0.0
2017-Sep-15 10:58N 37°57' E 023°38'0 0.0
2017-Sep-15 10:28N 37°57' E 023°38'0 0.0
2017-Sep-15 09:58N 37°57' E 023°38'0 0.0
2017-Sep-15 09:28N 37°57' E 023°38'0 0.0
2017-Sep-15 08:58N 37°57' E 023°38'0 0.0
2017-Sep-15 08:28N 37°57' E 023°38'0 0.0
2017-Sep-15 07:58N 37°57' E 023°38'0 0.0
2017-Sep-15 07:28N 37°57' E 023°38'0 0.0
2017-Sep-15 06:58N 37°57' E 023°38'0 0.0
2017-Sep-15 06:25N 37°57' E 023°38'0 0.0
2017-Sep-15 05:58N 37°57' E 023°38'0 0.0
2017-Sep-15 05:28N 37°57' E 023°38'0 0.0
2017-Sep-15 04:58N 37°57' E 023°38'0 0.0
2017-Sep-15 04:28N 37°57' E 023°38'0 0.0
2017-Sep-15 03:59N 37°57' E 023°38'0 0.0
2017-Sep-15 03:29N 37°57' E 023°38'0 0.0
2017-Sep-15 03:01N 37°57' E 023°38'2 3.2
2017-Sep-15 02:31N 37°56' E 023°37'918.4
2017-Sep-15 02:00N 37°48' E 023°42'918.9
2017-Sep-15 01:30N 37°39' E 023°48'2019.3
2017-Sep-15 00:27N 37°19' E 023°52'111 5.1
2017-Sep-14 02:42N 35°29' E 024°11'419.5
2017-Sep-14 02:30N 35°31' E 024°15'918.5
2017-Sep-14 02:01N 35°39' E 024°21'2919.8
2017-Sep-14 00:33N 36°07' E 024°12'320.1
2017-Sep-14 00:25N 36°09' E 024°12'7419.6
2017-Sep-13 20:39N 37°21' E 023°48'519.3
2017-Sep-13 20:22N 37°26' E 023°47'819.5
2017-Sep-13 19:59N 37°33' E 023°45'  
Track history (hours):
 
Tides and Currents Weather Stations Pressure Air Temp Water Temp Dewpoint Dewpoint Depression Visibility Wind Speed Wind Dir Waves Ship Positions

Blue Galaxy

Last reported at 2017-Sep-23 19:31 UTC. Time now 2017-Sep-24 01:40 UTC.
Position N 37°35' E 023°43'.

Length 192 m; draft 6.7 m.

Type: Passenger vessel. MMSI: 239672000.

Date/timePositionNaut miles runAvg speedWind from/ knotsBaromVisibWave heightAir tempDewpointWater temp
2017-Sep-23 19:31N 37°35' E 023°43'1 0.0
2017-Sep-21 19:59N 37°35' E 023°43'1019.9
2017-Sep-21 19:31N 37°44' E 023°39'1019.1
2017-Sep-21 19:01N 37°54' E 023°37'3 6.8
2017-Sep-21 18:30N 37°57' E 023°38'0 0.0
2017-Sep-21 17:59N 37°57' E 023°38'0 0.0
2017-Sep-21 17:29N 37°57' E 023°38'0 0.0
2017-Sep-21 16:59N 37°57' E 023°38'0 0.0
2017-Sep-21 16:29N 37°57' E 023°38'0 0.0
2017-Sep-21 15:59N 37°57' E 023°38'0 0.0
2017-Sep-21 15:29N 37°57' E 023°38'0 0.0
2017-Sep-21 14:59N 37°57' E 023°38'0 0.0
2017-Sep-21 14:29N 37°57' E 023°38'0 0.0
2017-Sep-21 13:59N 37°57' E 023°38'0 0.0
2017-Sep-21 13:29N 37°57' E 023°38'0 0.0
2017-Sep-21 12:59N 37°57' E 023°38'0 0.0
2017-Sep-21 12:29N 37°57' E 023°38'0 0.0
2017-Sep-21 11:59N 37°57' E 023°38'0 0.0
2017-Sep-21 11:29N 37°57' E 023°38'0 0.0
2017-Sep-21 10:59N 37°57' E 023°38'0 0.0
2017-Sep-21 10:29N 37°57' E 023°38'0 0.0
2017-Sep-21 09:59N 37°57' E 023°38'0 0.0
2017-Sep-21 09:29N 37°57' E 023°38'0 0.0
2017-Sep-21 08:59N 37°57' E 023°38'0 0.0
2017-Sep-21 08:26N 37°57' E 023°38'0 0.0
2017-Sep-21 07:59N 37°57' E 023°38'0 0.0
2017-Sep-21 07:29N 37°57' E 023°38'0 0.0
2017-Sep-21 06:59N 37°57' E 023°38'0 0.0
2017-Sep-21 06:29N 37°57' E 023°38'0 0.0
2017-Sep-21 05:59N 37°57' E 023°38'0 0.0
2017-Sep-21 05:29N 37°57' E 023°38'0 0.0
2017-Sep-21 04:59N 37°57' E 023°38'0 0.0
2017-Sep-21 04:29N 37°57' E 023°38'0 0.0
2017-Sep-21 03:59N 37°57' E 023°38'0 0.0
2017-Sep-21 03:29N 37°57' E 023°38'0 0.0
2017-Sep-21 03:01N 37°57' E 023°38'1 2.9
2017-Sep-21 02:31N 37°56' E 023°37'918.5
2017-Sep-21 02:01N 37°48' E 023°42'918.9
2017-Sep-21 01:31N 37°40' E 023°48'12719.0
2017-Sep-20 18:50N 35°34' E 024°13'2 0.1
2017-Sep-20 02:06N 35°32' E 024°13'220.0
2017-Sep-20 02:00N 35°34' E 024°13'1020.0
2017-Sep-20 01:29N 35°44' E 024°11'1020.1
2017-Sep-20 01:00N 35°54' E 024°08'1020.2
2017-Sep-20 00:30N 36°03' E 024°03'918.5
2017-Sep-20 00:00N 36°12' E 024°01'1018.9
2017-Sep-19 23:30N 36°22' E 024°03'1419.6
2017-Sep-19 22:48N 36°35' E 023°59'619.4
2017-Sep-19 22:30N 36°40' E 023°57'1019.1
2017-Sep-19 22:00N 36°50' E 023°56'918.9
2017-Sep-19 21:30N 36°59' E 023°53'918.8
2017-Sep-19 21:00N 37°08' E 023°51'918.9
2017-Sep-19 20:30N 37°18' E 023°48'1019.1
2017-Sep-19 20:00N 37°27' E 023°46'1019.4
2017-Sep-19 19:30N 37°36' E 023°42'1019.5
2017-Sep-19 19:00N 37°46' E 023°39'918.6
2017-Sep-19 18:30N 37°55' E 023°37'2 4.8
2017-Sep-19 18:00N 37°57' E 023°38'0 0.0
2017-Sep-19 17:30N 37°57' E 023°38'0 0.0
2017-Sep-19 16:58N 37°57' E 023°38'0 0.0
2017-Sep-19 16:28N 37°57' E 023°38'0 0.0
2017-Sep-19 15:58N 37°57' E 023°38'0 0.0
2017-Sep-19 15:28N 37°57' E 023°38'0 0.0
2017-Sep-19 14:58N 37°57' E 023°38'0 0.0
2017-Sep-19 14:28N 37°57' E 023°38'0 0.0
2017-Sep-19 13:58N 37°57' E 023°38'0 0.0
2017-Sep-19 13:28N 37°57' E 023°38'0 0.0
2017-Sep-19 12:58N 37°57' E 023°38'0 0.0
2017-Sep-19 12:28N 37°57' E 023°38'0 0.0
2017-Sep-19 11:58N 37°57' E 023°38'0 0.0
2017-Sep-19 11:28N 37°57' E 023°38'0 0.0
2017-Sep-19 10:58N 37°57' E 023°38'0 0.0
2017-Sep-19 10:28N 37°57' E 023°38'0 0.0
2017-Sep-19 09:58N 37°57' E 023°38'0 0.0
2017-Sep-19 09:28N 37°57' E 023°38'0 0.0
2017-Sep-19 08:58N 37°57' E 023°38'0 0.0
2017-Sep-19 08:28N 37°57' E 023°38'0 0.0
2017-Sep-19 07:58N 37°57' E 023°38'0 0.0
2017-Sep-19 07:22N 37°57' E 023°38'0 0.0
2017-Sep-19 06:58N 37°57' E 023°38'0 0.0
2017-Sep-19 06:28N 37°57' E 023°38'0 0.0
2017-Sep-19 05:58N 37°57' E 023°38'0 0.0
2017-Sep-19 05:28N 37°57' E 023°38'0 0.0
2017-Sep-19 04:58N 37°57' E 023°38'0 0.0
2017-Sep-19 04:28N 37°57' E 023°38'0 0.0
2017-Sep-19 03:58N 37°57' E 023°38'0 0.0
2017-Sep-19 03:28N 37°57' E 023°38'0 0.0
2017-Sep-19 02:58N 37°57' E 023°38'0 0.9
2017-Sep-19 02:30N 37°56' E 023°38'714.9
2017-Sep-19 02:00N 37°49' E 023°41'1019.2
2017-Sep-19 01:30N 37°41' E 023°46'1019.3
2017-Sep-19 01:00N 37°31' E 023°49'1019.4
2017-Sep-19 00:30N 37°22' E 023°53'1019.7
2017-Sep-19 00:00N 37°12' E 023°55'1019.9
2017-Sep-18 23:30N 37°03' E 023°58'1019.9
2017-Sep-18 23:00N 36°53' E 024°00'1019.9
2017-Sep-18 22:30N 36°43' E 024°02'1520.1
2017-Sep-18 21:47N 36°29' E 024°05'519.7
2017-Sep-18 21:30N 36°23' E 024°06'4919.0
2017-Sep-18 18:56N 35°35' E 024°14'5 0.3
2017-Sep-18 02:01N 35°30' E 024°12'019.9
2017-Sep-18 02:00N 35°30' E 024°12'918.8
2017-Sep-18 01:30N 35°39' E 024°15'1519.8
2017-Sep-18 00:45N 35°53' E 024°11'520.4
2017-Sep-18 00:29N 35°58' E 024°09'8219.6
2017-Sep-17 20:18N 37°19' E 023°49'619.7
2017-Sep-17 20:00N 37°24' E 023°47'1019.6
2017-Sep-17 19:30N 37°34' E 023°44'1019.5
2017-Sep-17 19:00N 37°43' E 023°40'918.7
2017-Sep-17 18:30N 37°52' E 023°37'5 9.3
2017-Sep-17 18:00N 37°57' E 023°38'0 0.0
2017-Sep-17 17:31N 37°57' E 023°38'0 0.0
2017-Sep-17 17:00N 37°57' E 023°38'0 0.0
2017-Sep-17 16:30N 37°57' E 023°38'0 0.0
2017-Sep-17 16:00N 37°57' E 023°38'0 0.0
2017-Sep-17 15:30N 37°57' E 023°38'0 0.0
2017-Sep-17 15:00N 37°57' E 023°38'0 0.0
2017-Sep-17 14:30N 37°57' E 023°38'0 0.0
2017-Sep-17 14:00N 37°57' E 023°38'0 0.0
2017-Sep-17 13:30N 37°57' E 023°38'0 0.0
2017-Sep-17 13:00N 37°57' E 023°38'0 0.0
2017-Sep-17 12:30N 37°57' E 023°38'0 0.0
2017-Sep-17 12:00N 37°57' E 023°38'0 0.0
2017-Sep-17 11:30N 37°57' E 023°38'0 0.0
2017-Sep-17 11:00N 37°57' E 023°38'0 0.0
2017-Sep-17 10:30N 37°57' E 023°38'0 0.0
2017-Sep-17 10:00N 37°57' E 023°38'0 0.0
2017-Sep-17 09:30N 37°57' E 023°38'0 0.0
2017-Sep-17 09:00N 37°57' E 023°38'0 0.0
2017-Sep-17 08:30N 37°57' E 023°38'0 0.0
2017-Sep-17 08:00N 37°57' E 023°38'0 0.0
2017-Sep-17 07:30N 37°57' E 023°38'0 0.0
2017-Sep-17 07:00N 37°57' E 023°38'0 0.0
2017-Sep-17 06:30N 37°57' E 023°38'0 0.0
2017-Sep-17 05:58N 37°57' E 023°38'0 0.0
2017-Sep-17 05:28N 37°57' E 023°38'0 0.0
2017-Sep-17 04:58N 37°57' E 023°38'0 0.0
2017-Sep-17 04:28N 37°57' E 023°38'0 0.0
2017-Sep-17 03:58N 37°57' E 023°38'0 0.0
2017-Sep-17 03:28N 37°57' E 023°38'0 0.0
2017-Sep-17 02:58N 37°57' E 023°38'0 0.0
2017-Sep-17 02:30N 37°57' E 023°38'4 7.5
2017-Sep-17 02:00N 37°53' E 023°38'1019.7
2017-Sep-17 01:30N 37°44' E 023°43'1019.6
2017-Sep-17 01:00N 37°35' E 023°47'1020.0
2017-Sep-17 00:30N 37°25' E 023°49'1020.0
2017-Sep-17 00:00N 37°16' E 023°54'1020.3
2017-Sep-16 23:30N 37°06' E 023°59'1619.7
2017-Sep-16 22:41N 36°52' E 024°07'519.7
2017-Sep-16 22:25N 36°47' E 024°05'1620.1
2017-Sep-16 21:39N 36°31' E 024°03'320.1
2017-Sep-16 21:30N 36°29' E 024°03'1019.8
2017-Sep-16 20:59N 36°18' E 024°03'14 0.7
2017-Sep-16 00:51N 36°04' E 024°06'720.0
2017-Sep-16 00:30N 36°11' E 024°05'3819.5
2017-Sep-15 22:33N 36°48' E 023°57'119.8
2017-Sep-15 22:30N 36°49' E 023°56'1019.6
2017-Sep-15 22:00N 36°59' E 023°53'1019.3
2017-Sep-15 21:30N 37°08' E 023°51'1019.0
2017-Sep-15 21:00N 37°17' E 023°49'1019.1
2017-Sep-15 20:30N 37°27' E 023°46'1019.4
2017-Sep-15 20:00N 37°36' E 023°43'1019.2
2017-Sep-15 19:30N 37°45' E 023°39'918.6
2017-Sep-15 19:00N 37°54' E 023°37'3 5.7
2017-Sep-15 18:30N 37°57' E 023°38'0 0.0
2017-Sep-15 18:00N 37°57' E 023°38'0 0.0
2017-Sep-15 17:31N 37°57' E 023°38'0 0.0
2017-Sep-15 16:59N 37°57' E 023°38'0 0.0
2017-Sep-15 16:26N 37°57' E 023°38'0 0.0
2017-Sep-15 15:59N 37°57' E 023°38'0 0.0
2017-Sep-15 15:29N 37°57' E 023°38'0 0.0
2017-Sep-15 14:59N 37°57' E 023°38'0 0.0
2017-Sep-15 14:29N 37°57' E 023°38'0 0.0
2017-Sep-15 14:00N 37°57' E 023°38'0 0.0
2017-Sep-15 13:25N 37°57' E 023°38'0 0.0
2017-Sep-15 12:58N 37°57' E 023°38'0 0.0
2017-Sep-15 12:28N 37°57' E 023°38'0 0.0
2017-Sep-15 11:58N 37°57' E 023°38'0 0.0
2017-Sep-15 11:28N 37°57' E 023°38'0 0.0
2017-Sep-15 10:58N 37°57' E 023°38'0 0.0
2017-Sep-15 10:28N 37°57' E 023°38'0 0.0
2017-Sep-15 09:58N 37°57' E 023°38'0 0.0
2017-Sep-15 09:28N 37°57' E 023°38'0 0.0
2017-Sep-15 08:58N 37°57' E 023°38'0 0.0
2017-Sep-15 08:28N 37°57' E 023°38'0 0.0
2017-Sep-15 07:58N 37°57' E 023°38'0 0.0
2017-Sep-15 07:28N 37°57' E 023°38'0 0.0
2017-Sep-15 06:58N 37°57' E 023°38'0 0.0
2017-Sep-15 06:25N 37°57' E 023°38'0 0.0
2017-Sep-15 05:58N 37°57' E 023°38'0 0.0
2017-Sep-15 05:28N 37°57' E 023°38'0 0.0
2017-Sep-15 04:58N 37°57' E 023°38'0 0.0
2017-Sep-15 04:28N 37°57' E 023°38'0 0.0
2017-Sep-15 03:59N 37°57' E 023°38'0 0.0
2017-Sep-15 03:29N 37°57' E 023°38'0 0.0
2017-Sep-15 03:01N 37°57' E 023°38'2 3.2
2017-Sep-15 02:31N 37°56' E 023°37'918.4
2017-Sep-15 02:00N 37°48' E 023°42'918.9
2017-Sep-15 01:30N 37°39' E 023°48'2019.3
2017-Sep-15 00:27N 37°19' E 023°52'111 5.1
2017-Sep-14 02:42N 35°29' E 024°11'419.5
2017-Sep-14 02:30N 35°31' E 024°15'918.5
2017-Sep-14 02:01N 35°39' E 024°21'2919.8
2017-Sep-14 00:33N 36°07' E 024°12'320.1
2017-Sep-14 00:25N 36°09' E 024°12'7419.6
2017-Sep-13 20:39N 37°21' E 023°48'519.3
2017-Sep-13 20:22N 37°26' E 023°47'819.5
2017-Sep-13 19:59N 37°33' E 023°45'  

Dump ship's entire track history